sensor_id;sensor_type;location;lat;lon;timestamp;P1;durP1;ratioP1;P2;durP2;ratioP2
23258;SDS011;11798;51.528;7.240;2023-04-24T00:01:24;1.13;;;1.03;;
23258;SDS011;11798;51.528;7.240;2023-04-24T00:03:50;1.47;;;1.03;;
23258;SDS011;11798;51.528;7.240;2023-04-24T00:06:16;2.93;;;0.70;;
23258;SDS011;11798;51.528;7.240;2023-04-24T00:08:41;2.10;;;0.90;;
23258;SDS011;11798;51.528;7.240;2023-04-24T00:11:07;1.50;;;1.00;;
23258;SDS011;11798;51.528;7.240;2023-04-24T00:13:34;1.70;;;0.80;;
23258;SDS011;11798;51.528;7.240;2023-04-24T00:16:00;3.47;;;1.20;;
23258;SDS011;11798;51.528;7.240;2023-04-24T00:18:25;1.57;;;0.90;;
23258;SDS011;11798;51.528;7.240;2023-04-24T00:20:51;2.00;;;1.00;;
23258;SDS011;11798;51.528;7.240;2023-04-24T00:23:17;3.07;;;1.10;;
23258;SDS011;11798;51.528;7.240;2023-04-24T00:25:42;4.00;;;1.03;;
23258;SDS011;11798;51.528;7.240;2023-04-24T00:28:08;2.17;;;1.37;;
23258;SDS011;11798;51.528;7.240;2023-04-24T00:30:34;2.37;;;1.43;;
23258;SDS011;11798;51.528;7.240;2023-04-24T00:32:59;1.60;;;1.37;;
23258;SDS011;11798;51.528;7.240;2023-04-24T00:35:25;2.13;;;0.97;;
23258;SDS011;11798;51.528;7.240;2023-04-24T00:37:50;2.43;;;1.20;;
23258;SDS011;11798;51.528;7.240;2023-04-24T00:40:16;2.00;;;1.30;;
23258;SDS011;11798;51.528;7.240;2023-04-24T00:42:43;1.80;;;1.20;;
23258;SDS011;11798;51.528;7.240;2023-04-24T00:45:08;1.20;;;1.00;;
23258;SDS011;11798;51.528;7.240;2023-04-24T00:47:34;5.33;;;1.50;;
23258;SDS011;11798;51.528;7.240;2023-04-24T00:50:02;3.07;;;1.40;;
23258;SDS011;11798;51.528;7.240;2023-04-24T00:52:28;2.27;;;1.13;;
23258;SDS011;11798;51.528;7.240;2023-04-24T00:54:56;2.10;;;1.30;;
23258;SDS011;11798;51.528;7.240;2023-04-24T00:57:21;1.77;;;1.40;;
23258;SDS011;11798;51.528;7.240;2023-04-24T00:59:48;1.90;;;1.40;;
23258;SDS011;11798;51.528;7.240;2023-04-24T01:02:15;1.50;;;1.40;;
23258;SDS011;11798;51.528;7.240;2023-04-24T01:04:40;1.63;;;1.30;;
23258;SDS011;11798;51.528;7.240;2023-04-24T01:07:06;2.20;;;1.40;;
23258;SDS011;11798;51.528;7.240;2023-04-24T01:09:36;3.63;;;1.63;;
23258;SDS011;11798;51.528;7.240;2023-04-24T01:12:08;2.40;;;1.57;;
23258;SDS011;11798;51.528;7.240;2023-04-24T01:14:34;3.50;;;1.77;;
23258;SDS011;11798;51.528;7.240;2023-04-24T01:17:00;2.17;;;1.97;;
23258;SDS011;11798;51.528;7.240;2023-04-24T01:19:26;3.30;;;1.73;;
23258;SDS011;11798;51.528;7.240;2023-04-24T01:21:53;1.83;;;1.70;;
23258;SDS011;11798;51.528;7.240;2023-04-24T01:24:22;2.23;;;1.77;;
23258;SDS011;11798;51.528;7.240;2023-04-24T01:26:48;2.80;;;1.90;;
23258;SDS011;11798;51.528;7.240;2023-04-24T01:29:13;3.83;;;2.23;;
23258;SDS011;11798;51.528;7.240;2023-04-24T01:31:39;4.17;;;2.17;;
23258;SDS011;11798;51.528;7.240;2023-04-24T01:34:05;3.40;;;2.40;;
23258;SDS011;11798;51.528;7.240;2023-04-24T01:36:31;3.20;;;2.40;;
23258;SDS011;11798;51.528;7.240;2023-04-24T01:38:57;4.20;;;2.43;;
23258;SDS011;11798;51.528;7.240;2023-04-24T01:41:23;4.03;;;2.63;;
23258;SDS011;11798;51.528;7.240;2023-04-24T01:43:49;4.30;;;2.63;;
23258;SDS011;11798;51.528;7.240;2023-04-24T01:46:16;3.30;;;2.40;;
23258;SDS011;11798;51.528;7.240;2023-04-24T01:48:41;3.80;;;2.97;;
23258;SDS011;11798;51.528;7.240;2023-04-24T01:51:07;5.50;;;3.20;;
23258;SDS011;11798;51.528;7.240;2023-04-24T01:53:32;4.20;;;3.33;;
23258;SDS011;11798;51.528;7.240;2023-04-24T01:55:58;7.60;;;3.83;;
23258;SDS011;11798;51.528;7.240;2023-04-24T01:58:24;5.00;;;3.80;;
23258;SDS011;11798;51.528;7.240;2023-04-24T02:00:49;4.70;;;3.73;;
23258;SDS011;11798;51.528;7.240;2023-04-24T02:03:15;4.20;;;3.40;;
23258;SDS011;11798;51.528;7.240;2023-04-24T02:05:43;7.33;;;3.97;;
23258;SDS011;11798;51.528;7.240;2023-04-24T02:08:10;5.43;;;3.87;;
23258;SDS011;11798;51.528;7.240;2023-04-24T02:10:35;4.60;;;3.80;;
23258;SDS011;11798;51.528;7.240;2023-04-24T02:13:01;6.03;;;3.77;;
23258;SDS011;11798;51.528;7.240;2023-04-24T02:15:27;6.37;;;3.90;;
23258;SDS011;11798;51.528;7.240;2023-04-24T02:17:52;4.77;;;3.90;;
23258;SDS011;11798;51.528;7.240;2023-04-24T02:20:18;6.07;;;3.93;;
23258;SDS011;11798;51.528;7.240;2023-04-24T02:22:44;6.53;;;4.17;;
23258;SDS011;11798;51.528;7.240;2023-04-24T02:25:10;4.80;;;3.93;;
23258;SDS011;11798;51.528;7.240;2023-04-24T02:27:35;8.00;;;4.93;;
23258;SDS011;11798;51.528;7.240;2023-04-24T02:30:01;7.60;;;4.73;;
23258;SDS011;11798;51.528;7.240;2023-04-24T02:32:27;8.40;;;6.23;;
23258;SDS011;11798;51.528;7.240;2023-04-24T02:34:53;9.67;;;6.27;;
23258;SDS011;11798;51.528;7.240;2023-04-24T02:37:19;8.97;;;6.30;;
23258;SDS011;11798;51.528;7.240;2023-04-24T02:39:44;10.30;;;6.57;;
23258;SDS011;11798;51.528;7.240;2023-04-24T02:42:10;10.60;;;6.97;;
23258;SDS011;11798;51.528;7.240;2023-04-24T02:44:36;10.93;;;7.47;;
23258;SDS011;11798;51.528;7.240;2023-04-24T02:47:01;10.13;;;6.93;;
23258;SDS011;11798;51.528;7.240;2023-04-24T02:49:27;12.33;;;8.47;;
23258;SDS011;11798;51.528;7.240;2023-04-24T02:51:52;13.70;;;8.80;;
23258;SDS011;11798;51.528;7.240;2023-04-24T02:54:18;16.57;;;9.90;;
23258;SDS011;11798;51.528;7.240;2023-04-24T02:56:43;13.23;;;9.40;;
23258;SDS011;11798;51.528;7.240;2023-04-24T02:59:09;13.67;;;9.57;;
23258;SDS011;11798;51.528;7.240;2023-04-24T03:01:35;12.70;;;9.13;;
23258;SDS011;11798;51.528;7.240;2023-04-24T03:04:01;13.40;;;9.23;;
23258;SDS011;11798;51.528;7.240;2023-04-24T03:06:26;15.27;;;9.40;;
23258;SDS011;11798;51.528;7.240;2023-04-24T03:08:53;15.37;;;9.63;;
23258;SDS011;11798;51.528;7.240;2023-04-24T03:11:19;14.40;;;9.27;;
23258;SDS011;11798;51.528;7.240;2023-04-24T03:13:45;16.40;;;10.13;;
23258;SDS011;11798;51.528;7.240;2023-04-24T03:16:10;13.77;;;9.90;;
23258;SDS011;11798;51.528;7.240;2023-04-24T03:18:36;12.70;;;10.07;;
23258;SDS011;11798;51.528;7.240;2023-04-24T03:21:01;13.13;;;10.03;;
23258;SDS011;11798;51.528;7.240;2023-04-24T03:23:28;14.70;;;10.07;;
23258;SDS011;11798;51.528;7.240;2023-04-24T03:25:54;16.97;;;10.83;;
23258;SDS011;11798;51.528;7.240;2023-04-24T03:28:20;16.10;;;10.83;;
23258;SDS011;11798;51.528;7.240;2023-04-24T03:30:45;14.80;;;10.73;;
23258;SDS011;11798;51.528;7.240;2023-04-24T03:33:11;14.73;;;10.37;;
23258;SDS011;11798;51.528;7.240;2023-04-24T03:35:36;15.30;;;10.83;;
23258;SDS011;11798;51.528;7.240;2023-04-24T03:38:02;19.07;;;11.33;;
23258;SDS011;11798;51.528;7.240;2023-04-24T03:40:29;16.60;;;11.30;;
23258;SDS011;11798;51.528;7.240;2023-04-24T03:42:55;16.23;;;10.87;;
23258;SDS011;11798;51.528;7.240;2023-04-24T03:45:20;14.17;;;10.50;;
23258;SDS011;11798;51.528;7.240;2023-04-24T03:47:46;17.43;;;10.80;;
23258;SDS011;11798;51.528;7.240;2023-04-24T03:50:12;16.27;;;11.60;;
23258;SDS011;11798;51.528;7.240;2023-04-24T03:52:37;13.90;;;10.13;;
23258;SDS011;11798;51.528;7.240;2023-04-24T03:55:03;15.10;;;10.80;;
23258;SDS011;11798;51.528;7.240;2023-04-24T03:57:29;15.17;;;11.10;;
23258;SDS011;11798;51.528;7.240;2023-04-24T03:59:55;15.40;;;10.90;;
23258;SDS011;11798;51.528;7.240;2023-04-24T04:02:20;18.30;;;11.13;;
23258;SDS011;11798;51.528;7.240;2023-04-24T04:04:46;16.83;;;11.13;;
23258;SDS011;11798;51.528;7.240;2023-04-24T04:07:11;15.10;;;11.00;;
23258;SDS011;11798;51.528;7.240;2023-04-24T04:09:37;17.87;;;12.07;;
23258;SDS011;11798;51.528;7.240;2023-04-24T04:12:03;19.37;;;12.10;;
23258;SDS011;11798;51.528;7.240;2023-04-24T04:14:29;20.57;;;12.57;;
23258;SDS011;11798;51.528;7.240;2023-04-24T04:16:54;16.50;;;11.30;;
23258;SDS011;11798;51.528;7.240;2023-04-24T04:19:20;19.07;;;12.13;;
23258;SDS011;11798;51.528;7.240;2023-04-24T04:21:46;16.90;;;11.73;;
23258;SDS011;11798;51.528;7.240;2023-04-24T04:24:15;14.73;;;12.30;;
23258;SDS011;11798;51.528;7.240;2023-04-24T04:26:41;16.43;;;11.83;;
23258;SDS011;11798;51.528;7.240;2023-04-24T04:29:12;17.70;;;11.90;;
23258;SDS011;11798;51.528;7.240;2023-04-24T04:31:38;15.47;;;11.27;;
23258;SDS011;11798;51.528;7.240;2023-04-24T04:34:04;19.93;;;11.70;;
23258;SDS011;11798;51.528;7.240;2023-04-24T04:36:29;20.03;;;11.30;;
23258;SDS011;11798;51.528;7.240;2023-04-24T04:38:55;17.47;;;11.10;;
23258;SDS011;11798;51.528;7.240;2023-04-24T04:41:21;15.97;;;11.10;;
23258;SDS011;11798;51.528;7.240;2023-04-24T04:43:47;16.47;;;11.50;;
23258;SDS011;11798;51.528;7.240;2023-04-24T04:46:13;15.83;;;11.43;;
23258;SDS011;11798;51.528;7.240;2023-04-24T04:48:39;18.73;;;12.43;;
23258;SDS011;11798;51.528;7.240;2023-04-24T04:51:05;16.80;;;11.73;;
23258;SDS011;11798;51.528;7.240;2023-04-24T04:53:31;16.03;;;11.40;;
23258;SDS011;11798;51.528;7.240;2023-04-24T04:55:57;16.63;;;11.30;;
23258;SDS011;11798;51.528;7.240;2023-04-24T04:58:22;16.97;;;11.50;;
23258;SDS011;11798;51.528;7.240;2023-04-24T05:00:48;15.07;;;11.37;;
23258;SDS011;11798;51.528;7.240;2023-04-24T05:03:14;17.53;;;11.80;;
23258;SDS011;11798;51.528;7.240;2023-04-24T05:05:41;19.40;;;11.97;;
23258;SDS011;11798;51.528;7.240;2023-04-24T05:08:07;15.07;;;12.00;;
23258;SDS011;11798;51.528;7.240;2023-04-24T05:10:33;20.90;;;12.53;;
23258;SDS011;11798;51.528;7.240;2023-04-24T05:12:59;17.00;;;12.23;;
23258;SDS011;11798;51.528;7.240;2023-04-24T05:15:26;16.20;;;11.00;;
23258;SDS011;11798;51.528;7.240;2023-04-24T05:17:51;16.77;;;12.17;;
23258;SDS011;11798;51.528;7.240;2023-04-24T05:20:17;16.80;;;11.50;;
23258;SDS011;11798;51.528;7.240;2023-04-24T05:22:42;16.23;;;10.53;;
23258;SDS011;11798;51.528;7.240;2023-04-24T05:25:08;14.30;;;9.90;;
23258;SDS011;11798;51.528;7.240;2023-04-24T05:27:34;12.30;;;9.70;;
23258;SDS011;11798;51.528;7.240;2023-04-24T05:30:00;13.60;;;9.70;;
23258;SDS011;11798;51.528;7.240;2023-04-24T05:32:25;13.00;;;9.93;;
23258;SDS011;11798;51.528;7.240;2023-04-24T05:34:52;15.40;;;9.23;;
23258;SDS011;11798;51.528;7.240;2023-04-24T05:37:17;11.63;;;9.23;;
23258;SDS011;11798;51.528;7.240;2023-04-24T05:39:43;12.30;;;9.53;;
23258;SDS011;11798;51.528;7.240;2023-04-24T05:42:08;11.53;;;8.93;;
23258;SDS011;11798;51.528;7.240;2023-04-24T05:44:34;14.07;;;9.37;;
23258;SDS011;11798;51.528;7.240;2023-04-24T05:47:00;14.70;;;10.40;;
23258;SDS011;11798;51.528;7.240;2023-04-24T05:49:25;14.77;;;9.20;;
23258;SDS011;11798;51.528;7.240;2023-04-24T05:51:51;13.43;;;9.40;;
23258;SDS011;11798;51.528;7.240;2023-04-24T05:54:16;16.43;;;10.40;;
23258;SDS011;11798;51.528;7.240;2023-04-24T05:56:42;15.03;;;10.30;;
23258;SDS011;11798;51.528;7.240;2023-04-24T05:59:08;14.17;;;10.90;;
23258;SDS011;11798;51.528;7.240;2023-04-24T06:01:34;13.77;;;10.70;;
23258;SDS011;11798;51.528;7.240;2023-04-24T06:04:01;13.10;;;9.97;;
23258;SDS011;11798;51.528;7.240;2023-04-24T06:06:28;15.37;;;11.57;;
23258;SDS011;11798;51.528;7.240;2023-04-24T06:08:54;17.03;;;10.80;;
23258;SDS011;11798;51.528;7.240;2023-04-24T06:11:19;14.50;;;11.40;;
23258;SDS011;11798;51.528;7.240;2023-04-24T06:13:45;14.67;;;11.17;;
23258;SDS011;11798;51.528;7.240;2023-04-24T06:16:10;13.67;;;10.20;;
23258;SDS011;11798;51.528;7.240;2023-04-24T06:18:36;13.87;;;10.87;;
23258;SDS011;11798;51.528;7.240;2023-04-24T06:21:01;12.30;;;10.30;;
23258;SDS011;11798;51.528;7.240;2023-04-24T06:23:27;14.37;;;9.57;;
23258;SDS011;11798;51.528;7.240;2023-04-24T06:25:53;14.57;;;9.73;;
23258;SDS011;11798;51.528;7.240;2023-04-24T06:28:18;12.83;;;9.50;;
23258;SDS011;11798;51.528;7.240;2023-04-24T06:30:44;13.77;;;9.03;;
23258;SDS011;11798;51.528;7.240;2023-04-24T06:33:10;13.30;;;9.17;;
23258;SDS011;11798;51.528;7.240;2023-04-24T06:35:36;16.87;;;9.97;;
23258;SDS011;11798;51.528;7.240;2023-04-24T06:38:03;15.00;;;8.93;;
23258;SDS011;11798;51.528;7.240;2023-04-24T06:40:28;12.40;;;8.70;;
23258;SDS011;11798;51.528;7.240;2023-04-24T06:42:54;10.80;;;7.80;;
23258;SDS011;11798;51.528;7.240;2023-04-24T06:45:19;11.77;;;8.30;;
23258;SDS011;11798;51.528;7.240;2023-04-24T06:47:45;10.67;;;8.10;;
23258;SDS011;11798;51.528;7.240;2023-04-24T06:50:11;11.53;;;8.40;;
23258;SDS011;11798;51.528;7.240;2023-04-24T06:52:37;11.33;;;9.17;;
23258;SDS011;11798;51.528;7.240;2023-04-24T06:55:03;10.80;;;8.17;;
23258;SDS011;11798;51.528;7.240;2023-04-24T06:57:29;9.13;;;7.80;;
23258;SDS011;11798;51.528;7.240;2023-04-24T06:59:55;10.80;;;8.00;;
23258;SDS011;11798;51.528;7.240;2023-04-24T07:02:21;9.63;;;8.00;;
23258;SDS011;11798;51.528;7.240;2023-04-24T07:04:47;8.63;;;7.37;;
23258;SDS011;11798;51.528;7.240;2023-04-24T07:07:12;10.87;;;7.80;;
23258;SDS011;11798;51.528;7.240;2023-04-24T07:09:39;9.50;;;7.40;;
23258;SDS011;11798;51.528;7.240;2023-04-24T07:12:07;9.30;;;7.30;;
23258;SDS011;11798;51.528;7.240;2023-04-24T07:14:33;8.67;;;7.40;;
23258;SDS011;11798;51.528;7.240;2023-04-24T07:16:58;9.73;;;7.50;;
23258;SDS011;11798;51.528;7.240;2023-04-24T07:19:24;8.40;;;7.33;;
23258;SDS011;11798;51.528;7.240;2023-04-24T07:21:50;8.27;;;6.63;;
23258;SDS011;11798;51.528;7.240;2023-04-24T07:24:15;7.23;;;6.03;;
23258;SDS011;11798;51.528;7.240;2023-04-24T07:26:41;7.30;;;5.77;;
23258;SDS011;11798;51.528;7.240;2023-04-24T07:29:07;6.10;;;5.30;;
23258;SDS011;11798;51.528;7.240;2023-04-24T07:31:33;5.90;;;4.73;;
23258;SDS011;11798;51.528;7.240;2023-04-24T07:33:58;7.10;;;4.27;;
23258;SDS011;11798;51.528;7.240;2023-04-24T07:36:24;7.23;;;4.67;;
23258;SDS011;11798;51.528;7.240;2023-04-24T07:38:51;4.57;;;3.90;;
23258;SDS011;11798;51.528;7.240;2023-04-24T07:41:17;5.63;;;4.00;;
23258;SDS011;11798;51.528;7.240;2023-04-24T07:43:42;5.37;;;3.57;;
23258;SDS011;11798;51.528;7.240;2023-04-24T07:46:09;5.10;;;3.97;;
23258;SDS011;11798;51.528;7.240;2023-04-24T07:48:35;4.67;;;3.40;;
23258;SDS011;11798;51.528;7.240;2023-04-24T07:51:01;4.33;;;3.40;;
23258;SDS011;11798;51.528;7.240;2023-04-24T07:53:26;4.37;;;3.50;;
23258;SDS011;11798;51.528;7.240;2023-04-24T07:55:53;3.50;;;3.10;;
23258;SDS011;11798;51.528;7.240;2023-04-24T07:58:20;3.23;;;2.93;;
23258;SDS011;11798;51.528;7.240;2023-04-24T08:00:46;3.43;;;2.60;;
23258;SDS011;11798;51.528;7.240;2023-04-24T08:03:12;2.93;;;2.53;;
23258;SDS011;11798;51.528;7.240;2023-04-24T08:05:38;3.70;;;2.60;;
23258;SDS011;11798;51.528;7.240;2023-04-24T08:08:03;3.77;;;2.40;;
23258;SDS011;11798;51.528;7.240;2023-04-24T08:10:29;2.30;;;2.10;;
23258;SDS011;11798;51.528;7.240;2023-04-24T08:12:55;2.80;;;2.20;;
23258;SDS011;11798;51.528;7.240;2023-04-24T08:15:21;4.33;;;2.40;;
23258;SDS011;11798;51.528;7.240;2023-04-24T08:17:46;3.37;;;1.73;;
23258;SDS011;11798;51.528;7.240;2023-04-24T08:20:12;0.90;;;0.90;;
23258;SDS011;11798;51.528;7.240;2023-04-24T08:22:41;1.20;;;1.10;;
23258;SDS011;11798;51.528;7.240;2023-04-24T08:25:07;1.10;;;1.00;;
23258;SDS011;11798;51.528;7.240;2023-04-24T08:27:34;0.73;;;0.63;;
23258;SDS011;11798;51.528;7.240;2023-04-24T08:29:59;1.03;;;0.93;;
23258;SDS011;11798;51.528;7.240;2023-04-24T08:32:25;1.00;;;0.90;;
23258;SDS011;11798;51.528;7.240;2023-04-24T08:34:54;1.73;;;1.10;;
23258;SDS011;11798;51.528;7.240;2023-04-24T08:37:21;1.20;;;1.10;;
23258;SDS011;11798;51.528;7.240;2023-04-24T08:39:47;1.30;;;1.20;;
23258;SDS011;11798;51.528;7.240;2023-04-24T08:42:14;1.53;;;1.43;;
23258;SDS011;11798;51.528;7.240;2023-04-24T08:44:41;2.33;;;1.20;;
23258;SDS011;11798;51.528;7.240;2023-04-24T08:47:08;1.30;;;1.20;;
23258;SDS011;11798;51.528;7.240;2023-04-24T08:49:33;2.53;;;1.40;;
23258;SDS011;11798;51.528;7.240;2023-04-24T08:52:02;2.90;;;1.20;;
23258;SDS011;11798;51.528;7.240;2023-04-24T08:54:28;2.00;;;1.37;;
23258;SDS011;11798;51.528;7.240;2023-04-24T08:56:54;1.20;;;1.10;;
23258;SDS011;11798;51.528;7.240;2023-04-24T08:59:26;1.70;;;1.50;;
23258;SDS011;11798;51.528;7.240;2023-04-24T09:01:53;2.00;;;1.60;;
23258;SDS011;11798;51.528;7.240;2023-04-24T09:04:20;2.93;;;2.23;;
23258;SDS011;11798;51.528;7.240;2023-04-24T09:06:49;3.30;;;2.50;;
23258;SDS011;11798;51.528;7.240;2023-04-24T09:09:16;2.93;;;2.47;;
23258;SDS011;11798;51.528;7.240;2023-04-24T09:11:43;3.83;;;2.90;;
23258;SDS011;11798;51.528;7.240;2023-04-24T09:14:09;5.00;;;2.97;;
23258;SDS011;11798;51.528;7.240;2023-04-24T09:16:35;5.10;;;3.10;;
23258;SDS011;11798;51.528;7.240;2023-04-24T09:19:01;5.13;;;3.57;;
23258;SDS011;11798;51.528;7.240;2023-04-24T09:21:31;4.40;;;3.50;;
23258;SDS011;11798;51.528;7.240;2023-04-24T09:24:02;5.07;;;4.00;;
23258;SDS011;11798;51.528;7.240;2023-04-24T09:26:30;4.80;;;4.27;;
23258;SDS011;11798;51.528;7.240;2023-04-24T09:28:57;4.60;;;4.10;;
23258;SDS011;11798;51.528;7.240;2023-04-24T09:31:23;5.63;;;3.90;;
23258;SDS011;11798;51.528;7.240;2023-04-24T09:33:59;3.97;;;3.57;;
23258;SDS011;11798;51.528;7.240;2023-04-24T09:36:29;4.00;;;3.60;;
23258;SDS011;11798;51.528;7.240;2023-04-24T09:39:07;4.73;;;3.90;;
23258;SDS011;11798;51.528;7.240;2023-04-24T09:41:35;4.90;;;3.77;;
23258;SDS011;11798;51.528;7.240;2023-04-24T09:44:14;5.63;;;4.50;;
23258;SDS011;11798;51.528;7.240;2023-04-24T09:46:40;4.97;;;4.53;;
23258;SDS011;11798;51.528;7.240;2023-04-24T09:49:16;6.30;;;5.03;;
23258;SDS011;11798;51.528;7.240;2023-04-24T09:51:46;7.43;;;5.03;;
23258;SDS011;11798;51.528;7.240;2023-04-24T09:54:15;5.00;;;4.43;;
23258;SDS011;11798;51.528;7.240;2023-04-24T09:56:43;5.30;;;4.37;;
23258;SDS011;11798;51.528;7.240;2023-04-24T09:59:10;5.00;;;4.00;;
23258;SDS011;11798;51.528;7.240;2023-04-24T10:01:36;3.93;;;3.50;;
23258;SDS011;11798;51.528;7.240;2023-04-24T10:04:03;5.93;;;3.40;;
23258;SDS011;11798;51.528;7.240;2023-04-24T10:06:35;4.80;;;4.30;;
23258;SDS011;11798;51.528;7.240;2023-04-24T10:09:00;5.43;;;4.50;;
23258;SDS011;11798;51.528;7.240;2023-04-24T10:11:28;8.43;;;5.33;;
23258;SDS011;11798;51.528;7.240;2023-04-24T10:13:55;9.00;;;5.30;;
23258;SDS011;11798;51.528;7.240;2023-04-24T10:16:22;10.80;;;5.40;;
23258;SDS011;11798;51.528;7.240;2023-04-24T10:18:48;7.90;;;5.43;;
23258;SDS011;11798;51.528;7.240;2023-04-24T10:21:15;8.90;;;5.10;;
23258;SDS011;11798;51.528;7.240;2023-04-24T10:23:42;7.80;;;5.33;;
23258;SDS011;11798;51.528;7.240;2023-04-24T10:26:12;5.60;;;4.27;;
23258;SDS011;11798;51.528;7.240;2023-04-24T10:28:44;7.07;;;4.47;;
23258;SDS011;11798;51.528;7.240;2023-04-24T10:31:10;6.80;;;4.57;;
23258;SDS011;11798;51.528;7.240;2023-04-24T10:33:38;9.13;;;5.37;;
23258;SDS011;11798;51.528;7.240;2023-04-24T10:36:06;5.83;;;4.83;;
23258;SDS011;11798;51.528;7.240;2023-04-24T10:38:34;7.50;;;5.77;;
23258;SDS011;11798;51.528;7.240;2023-04-24T10:41:11;7.03;;;5.70;;
23258;SDS011;11798;51.528;7.240;2023-04-24T10:43:48;8.90;;;6.13;;
23258;SDS011;11798;51.528;7.240;2023-04-24T10:46:29;8.97;;;5.93;;
23258;SDS011;11798;51.528;7.240;2023-04-24T10:48:55;7.90;;;6.40;;
23258;SDS011;11798;51.528;7.240;2023-04-24T10:51:22;9.50;;;6.77;;
23258;SDS011;11798;51.528;7.240;2023-04-24T10:53:51;10.03;;;6.47;;
23258;SDS011;11798;51.528;7.240;2023-04-24T10:56:17;8.17;;;6.33;;
23258;SDS011;11798;51.528;7.240;2023-04-24T10:58:49;10.10;;;6.50;;
23258;SDS011;11798;51.528;7.240;2023-04-24T11:01:27;8.77;;;7.13;;
23258;SDS011;11798;51.528;7.240;2023-04-24T11:03:58;12.87;;;7.80;;
23258;SDS011;11798;51.528;7.240;2023-04-24T11:06:45;13.37;;;8.80;;
23258;SDS011;11798;51.528;7.240;2023-04-24T11:09:10;13.13;;;8.30;;
23258;SDS011;11798;51.528;7.240;2023-04-24T11:11:44;13.33;;;7.77;;
23258;SDS011;11798;51.528;7.240;2023-04-24T11:14:10;16.07;;;8.13;;
23258;SDS011;11798;51.528;7.240;2023-04-24T11:16:53;15.10;;;8.10;;
23258;SDS011;11798;51.528;7.240;2023-04-24T11:19:23;17.47;;;9.50;;
23258;SDS011;11798;51.528;7.240;2023-04-24T11:21:54;17.70;;;7.70;;
23258;SDS011;11798;51.528;7.240;2023-04-24T11:26:54;17.83;;;7.53;;
23258;SDS011;11798;51.528;7.240;2023-04-24T11:32:23;17.43;;;8.13;;
23258;SDS011;11798;51.528;7.240;2023-04-24T11:34:55;14.17;;;7.37;;
23258;SDS011;11798;51.528;7.240;2023-04-24T11:37:27;13.13;;;7.60;;
23258;SDS011;11798;51.528;7.240;2023-04-24T11:39:56;17.93;;;7.90;;
23258;SDS011;11798;51.528;7.240;2023-04-24T11:42:22;20.33;;;7.73;;
23258;SDS011;11798;51.528;7.240;2023-04-24T11:44:49;23.43;;;7.67;;
23258;SDS011;11798;51.528;7.240;2023-04-24T11:47:16;17.60;;;8.57;;
23258;SDS011;11798;51.528;7.240;2023-04-24T11:49:42;17.17;;;8.37;;
23258;SDS011;11798;51.528;7.240;2023-04-24T11:52:07;17.47;;;8.27;;
23258;SDS011;11798;51.528;7.240;2023-04-24T11:54:33;17.07;;;8.80;;
23258;SDS011;11798;51.528;7.240;2023-04-24T11:56:59;17.30;;;8.87;;
23258;SDS011;11798;51.528;7.240;2023-04-24T11:59:35;14.57;;;8.57;;
23258;SDS011;11798;51.528;7.240;2023-04-24T12:02:01;17.73;;;8.50;;
23258;SDS011;11798;51.528;7.240;2023-04-24T12:04:27;18.43;;;8.53;;
23258;SDS011;11798;51.528;7.240;2023-04-24T12:07:06;13.47;;;7.20;;
23258;SDS011;11798;51.528;7.240;2023-04-24T12:12:23;10.80;;;6.10;;
23258;SDS011;11798;51.528;7.240;2023-04-24T12:14:55;12.90;;;5.80;;
23258;SDS011;11798;51.528;7.240;2023-04-24T12:17:29;11.90;;;5.70;;
23258;SDS011;11798;51.528;7.240;2023-04-24T12:22:44;13.27;;;6.00;;
23258;SDS011;11798;51.528;7.240;2023-04-24T12:25:11;15.57;;;6.30;;
23258;SDS011;11798;51.528;7.240;2023-04-24T12:27:38;14.70;;;6.03;;
23258;SDS011;11798;51.528;7.240;2023-04-24T12:30:04;10.50;;;4.90;;
23258;SDS011;11798;51.528;7.240;2023-04-24T12:32:31;8.73;;;4.87;;
23258;SDS011;11798;51.528;7.240;2023-04-24T12:34:57;7.93;;;4.87;;
23258;SDS011;11798;51.528;7.240;2023-04-24T12:37:26;9.50;;;4.70;;
23258;SDS011;11798;51.528;7.240;2023-04-24T12:42:26;11.47;;;4.27;;
23258;SDS011;11798;51.528;7.240;2023-04-24T12:44:55;10.83;;;4.47;;
23258;SDS011;11798;51.528;7.240;2023-04-24T12:47:24;6.83;;;4.20;;
23258;SDS011;11798;51.528;7.240;2023-04-24T12:49:50;9.03;;;5.00;;
23258;SDS011;11798;51.528;7.240;2023-04-24T12:52:17;8.47;;;4.80;;
23258;SDS011;11798;51.528;7.240;2023-04-24T12:54:45;7.70;;;5.73;;
23258;SDS011;11798;51.528;7.240;2023-04-24T12:57:10;10.53;;;4.90;;
23258;SDS011;11798;51.528;7.240;2023-04-24T12:59:36;9.60;;;4.43;;
23258;SDS011;11798;51.528;7.240;2023-04-24T13:02:01;7.80;;;4.43;;
23258;SDS011;11798;51.528;7.240;2023-04-24T13:04:27;8.23;;;4.93;;
23258;SDS011;11798;51.528;7.240;2023-04-24T13:06:53;5.63;;;4.13;;
23258;SDS011;11798;51.528;7.240;2023-04-24T13:09:18;7.77;;;3.77;;
23258;SDS011;11798;51.528;7.240;2023-04-24T13:11:44;7.43;;;3.73;;
23258;SDS011;11798;51.528;7.240;2023-04-24T13:14:10;8.23;;;3.63;;
23258;SDS011;11798;51.528;7.240;2023-04-24T13:16:35;5.50;;;3.47;;
23258;SDS011;11798;51.528;7.240;2023-04-24T13:19:01;4.40;;;3.23;;
23258;SDS011;11798;51.528;7.240;2023-04-24T13:21:26;6.43;;;3.00;;
23258;SDS011;11798;51.528;7.240;2023-04-24T13:23:52;6.67;;;2.90;;
23258;SDS011;11798;51.528;7.240;2023-04-24T13:26:18;6.87;;;3.30;;
23258;SDS011;11798;51.528;7.240;2023-04-24T13:28:43;6.30;;;3.13;;
23258;SDS011;11798;51.528;7.240;2023-04-24T13:31:09;6.97;;;3.60;;
23258;SDS011;11798;51.528;7.240;2023-04-24T13:33:35;7.03;;;3.20;;
23258;SDS011;11798;51.528;7.240;2023-04-24T13:36:00;7.00;;;3.77;;
23258;SDS011;11798;51.528;7.240;2023-04-24T13:38:26;6.47;;;4.33;;
23258;SDS011;11798;51.528;7.240;2023-04-24T13:40:52;5.73;;;4.23;;
23258;SDS011;11798;51.528;7.240;2023-04-24T13:43:17;7.87;;;4.33;;
23258;SDS011;11798;51.528;7.240;2023-04-24T13:45:43;6.87;;;4.17;;
23258;SDS011;11798;51.528;7.240;2023-04-24T13:48:08;8.90;;;3.80;;
23258;SDS011;11798;51.528;7.240;2023-04-24T13:50:34;5.90;;;3.53;;
23258;SDS011;11798;51.528;7.240;2023-04-24T13:52:59;4.80;;;3.13;;
23258;SDS011;11798;51.528;7.240;2023-04-24T13:55:26;4.70;;;3.00;;
23258;SDS011;11798;51.528;7.240;2023-04-24T13:57:51;4.73;;;2.90;;
23258;SDS011;11798;51.528;7.240;2023-04-24T14:00:20;5.43;;;3.10;;
23258;SDS011;11798;51.528;7.240;2023-04-24T14:02:46;8.03;;;4.43;;
23258;SDS011;11798;51.528;7.240;2023-04-24T14:05:12;8.43;;;3.47;;
23258;SDS011;11798;51.528;7.240;2023-04-24T14:07:40;8.40;;;2.87;;
23258;SDS011;11798;51.528;7.240;2023-04-24T14:10:06;4.60;;;2.70;;
23258;SDS011;11798;51.528;7.240;2023-04-24T14:12:32;5.93;;;3.20;;
23258;SDS011;11798;51.528;7.240;2023-04-24T14:14:58;4.57;;;3.03;;
23258;SDS011;11798;51.528;7.240;2023-04-24T14:17:24;10.97;;;3.70;;
23258;SDS011;11798;51.528;7.240;2023-04-24T14:19:49;5.40;;;3.67;;
23258;SDS011;11798;51.528;7.240;2023-04-24T14:22:16;6.07;;;3.53;;
23258;SDS011;11798;51.528;7.240;2023-04-24T14:24:42;5.53;;;3.00;;
23258;SDS011;11798;51.528;7.240;2023-04-24T14:27:08;6.23;;;2.63;;
23258;SDS011;11798;51.528;7.240;2023-04-24T14:29:33;5.03;;;3.00;;
23258;SDS011;11798;51.528;7.240;2023-04-24T14:31:59;7.47;;;2.77;;
23258;SDS011;11798;51.528;7.240;2023-04-24T14:34:25;8.97;;;2.80;;
23258;SDS011;11798;51.528;7.240;2023-04-24T14:36:52;4.70;;;2.60;;
23258;SDS011;11798;51.528;7.240;2023-04-24T14:39:17;3.93;;;2.57;;
23258;SDS011;11798;51.528;7.240;2023-04-24T14:41:43;5.37;;;2.30;;
23258;SDS011;11798;51.528;7.240;2023-04-24T14:44:08;7.17;;;2.97;;
23258;SDS011;11798;51.528;7.240;2023-04-24T14:46:34;4.77;;;2.80;;
23258;SDS011;11798;51.528;7.240;2023-04-24T14:49:00;6.20;;;3.00;;
23258;SDS011;11798;51.528;7.240;2023-04-24T14:51:25;7.97;;;3.47;;